createdAt,value
2022-10-05T00:00:57.128Z,12.40
2022-10-05T00:03:43.585Z,12.30
2022-10-05T00:06:31.602Z,12.20
2022-10-05T00:09:21.146Z,12.20
2022-10-05T00:12:14.662Z,12.20
2022-10-05T00:15:02.139Z,12.30
2022-10-05T00:17:48.848Z,12.30
2022-10-05T00:20:35.449Z,12.20
2022-10-05T00:23:25.895Z,12.10
2022-10-05T00:26:17.325Z,12.20
2022-10-05T00:29:09.162Z,12.30
2022-10-05T00:31:55.498Z,12.30
2022-10-05T00:34:43.230Z,12.30
2022-10-05T00:37:29.667Z,12.20
2022-10-05T00:40:31.398Z,12.10
2022-10-05T00:43:44.775Z,12.20
2022-10-05T00:46:41.393Z,12.20
2022-10-05T00:49:46.451Z,12.10
2022-10-05T00:52:38.689Z,12.10
2022-10-05T00:55:34.717Z,12.00
2022-10-05T00:58:32.878Z,12.00
2022-10-05T01:01:26.663Z,12.10
2022-10-05T01:04:21.200Z,11.90
2022-10-05T01:07:15.814Z,11.80
2022-10-05T01:10:10.441Z,11.80
2022-10-05T01:13:06.297Z,11.70
2022-10-05T01:15:59.069Z,11.70
2022-10-05T01:18:51.285Z,11.70
2022-10-05T01:21:44.427Z,11.70
2022-10-05T01:24:51.154Z,11.70
2022-10-05T01:27:49.029Z,11.70
2022-10-05T01:30:40.698Z,11.60
2022-10-05T01:33:33.494Z,11.60
2022-10-05T01:36:30.365Z,11.70
2022-10-05T01:39:23.801Z,11.60
2022-10-05T01:42:20.239Z,11.60
2022-10-05T01:45:16.304Z,11.60
2022-10-05T01:48:09.414Z,11.50
2022-10-05T01:51:06.926Z,11.50
2022-10-05T01:54:04.440Z,11.50
2022-10-05T01:56:58.313Z,11.50
2022-10-05T01:59:59.170Z,11.50
2022-10-05T02:02:51.613Z,11.40
2022-10-05T02:05:44.886Z,11.50
2022-10-05T02:08:38.874Z,11.50
2022-10-05T02:11:25.277Z,11.50
2022-10-05T02:14:13.737Z,11.40
2022-10-05T02:17:05.504Z,11.40
2022-10-05T02:19:58.266Z,11.40
2022-10-05T02:22:48.113Z,11.40
2022-10-05T02:25:37.619Z,11.30
2022-10-05T02:28:28.841Z,11.30
2022-10-05T02:31:19.055Z,11.30
2022-10-05T02:34:25.294Z,11.20
2022-10-05T02:37:22.905Z,11.20
2022-10-05T02:40:23.754Z,11.20
2022-10-05T02:43:20.601Z,11.30
2022-10-05T02:46:17.778Z,11.30
2022-10-05T02:49:15.507Z,11.20
2022-10-05T02:52:10.779Z,11.20
2022-10-05T02:55:07.756Z,11.10
2022-10-05T02:58:00.830Z,11.00
2022-10-05T03:00:51.948Z,11.00
2022-10-05T03:03:43.368Z,11.00
2022-10-05T03:06:35.890Z,10.90
2022-10-05T03:09:27.504Z,10.90
2022-10-05T03:12:30.151Z,10.90
2022-10-05T03:15:41.151Z,10.90
2022-10-05T03:18:38.542Z,10.80
2022-10-05T03:21:41.605Z,10.80
2022-10-05T03:24:48.258Z,10.80
2022-10-05T03:27:45.609Z,10.80
2022-10-05T03:30:38.168Z,10.80
2022-10-05T03:33:34.466Z,10.70
2022-10-05T03:36:28.218Z,10.70
2022-10-05T03:39:22.458Z,10.60
2022-10-05T03:42:15.603Z,10.60
2022-10-05T03:45:10.142Z,10.70
2022-10-05T03:48:04.074Z,10.70
2022-10-05T03:51:02.428Z,10.70
2022-10-05T03:53:53.104Z,10.70
2022-10-05T03:56:44.099Z,10.60
2022-10-05T03:59:38.864Z,10.70
2022-10-05T04:02:30.328Z,10.70
2022-10-05T04:05:21.696Z,10.70
2022-10-05T04:08:12.842Z,10.80
2022-10-05T04:11:05.117Z,10.90
2022-10-05T04:13:58.529Z,11.00
2022-10-05T04:16:48.695Z,11.00
2022-10-05T04:19:44.082Z,11.10
2022-10-05T04:22:35.134Z,11.00
2022-10-05T04:25:27.471Z,11.10
2022-10-05T04:28:21.586Z,11.10
2022-10-05T04:31:14.513Z,11.10
2022-10-05T04:34:13.703Z,11.00
2022-10-05T04:37:06.821Z,11.00
2022-10-05T04:40:05.242Z,11.00
2022-10-05T04:43:02.993Z,10.90
2022-10-05T04:46:07.133Z,10.80
2022-10-05T04:49:25.503Z,10.80
2022-10-05T04:52:18.791Z,10.80
2022-10-05T04:55:15.638Z,10.90
2022-10-05T04:58:10.241Z,10.90
2022-10-05T05:01:08.620Z,10.90
2022-10-05T05:04:10.813Z,11.00
2022-10-05T05:07:10.912Z,10.90
2022-10-05T05:10:20.605Z,10.80
2022-10-05T05:13:16.110Z,10.70
2022-10-05T05:16:07.770Z,10.50
2022-10-05T05:19:16.135Z,10.30
2022-10-05T05:22:07.662Z,10.30
2022-10-05T05:25:14.046Z,10.30
2022-10-05T05:28:08.455Z,10.30
2022-10-05T05:31:06.495Z,10.30
2022-10-05T05:34:00.644Z,10.40
2022-10-05T05:36:53.458Z,10.40
2022-10-05T05:39:47.515Z,10.50
2022-10-05T05:42:46.337Z,10.60
2022-10-05T05:45:38.406Z,10.80
2022-10-05T05:48:31.823Z,10.80
2022-10-05T05:51:21.930Z,11.00
2022-10-05T05:54:24.566Z,11.10
2022-10-05T05:57:16.044Z,11.20
2022-10-05T06:00:08.695Z,11.30
2022-10-05T06:02:59.484Z,11.50
2022-10-05T06:05:49.763Z,11.80
2022-10-05T06:08:41.080Z,11.80
2022-10-05T06:11:30.742Z,11.90
2022-10-05T06:14:24.361Z,12.10
2022-10-05T06:20:05.605Z,12.70
2022-10-05T06:22:53.466Z,13.00
2022-10-05T06:25:51.941Z,13.10
2022-10-05T06:28:38.914Z,13.40
2022-10-05T06:31:36.799Z,13.50
2022-10-05T06:34:39.414Z,13.50
2022-10-05T06:37:42.690Z,13.60
2022-10-05T06:40:44.974Z,13.50
2022-10-05T06:43:49.258Z,13.60
2022-10-05T06:46:42.315Z,13.60
2022-10-05T06:49:33.030Z,13.60
2022-10-05T06:52:29.483Z,13.80
2022-10-05T06:55:24.265Z,13.90
2022-10-05T06:58:40.389Z,13.90
2022-10-05T07:01:38.373Z,14.00
2022-10-05T07:04:52.391Z,13.90
2022-10-05T07:07:48.343Z,13.90
2022-10-05T07:10:41.491Z,14.10
2022-10-05T07:13:50.687Z,14.20
2022-10-05T07:16:46.232Z,14.40
2022-10-05T07:19:42.134Z,14.40
2022-10-05T07:22:56.885Z,14.40
2022-10-05T07:25:50.250Z,14.40
2022-10-05T07:28:48.079Z,14.40
2022-10-05T07:31:42.175Z,14.20
2022-10-05T07:34:39.969Z,14.20
2022-10-05T07:37:54.480Z,14.20
2022-10-05T07:40:46.017Z,14.20
2022-10-05T07:44:00.591Z,14.40
2022-10-05T07:46:54.280Z,14.60
2022-10-05T07:49:49.558Z,14.70
2022-10-05T07:52:40.502Z,14.80
2022-10-05T07:55:28.185Z,14.90
2022-10-05T07:58:21.953Z,15.00
2022-10-05T08:01:13.277Z,15.10
2022-10-05T08:04:03.503Z,15.20
2022-10-05T08:06:52.069Z,15.30
2022-10-05T08:09:45.370Z,15.40
2022-10-05T08:12:35.705Z,15.50
2022-10-05T08:15:25.830Z,15.60
2022-10-05T08:18:19.634Z,16.00
2022-10-05T08:21:11.786Z,16.40
2022-10-05T08:24:04.038Z,16.70
2022-10-05T08:27:01.987Z,16.80
2022-10-05T08:29:55.609Z,16.50
2022-10-05T08:32:49.164Z,16.40
2022-10-05T08:35:39.100Z,16.30
2022-10-05T08:38:32.682Z,16.40
2022-10-05T08:42:19.464Z,16.40
2022-10-05T08:45:32.571Z,16.60
2022-10-05T08:49:02.262Z,16.70
2022-10-05T08:52:21.772Z,16.90
2022-10-05T08:55:47.201Z,17.10
2022-10-05T08:59:15.072Z,17.40
2022-10-05T09:02:21.766Z,17.70
2022-10-05T09:05:28.511Z,18.00
2022-10-05T09:08:42.787Z,18.20
2022-10-05T09:11:36.538Z,18.20
2022-10-05T09:15:01.347Z,18.30
2022-10-05T09:18:38.128Z,18.30
2022-10-05T09:21:41.766Z,18.50
2022-10-05T09:24:29.689Z,18.60
2022-10-05T09:27:18.299Z,18.80
2022-10-05T09:30:26.841Z,19.00
2022-10-05T09:33:53.812Z,19.20
2022-10-05T09:37:21.891Z,19.30
2022-10-05T09:41:04.278Z,19.50
2022-10-05T09:44:40.376Z,19.70
2022-10-05T09:47:52.782Z,20.00
2022-10-05T09:51:08.367Z,20.10
2022-10-05T09:54:34.710Z,20.20
2022-10-05T09:57:57.373Z,20.30
2022-10-05T10:01:09.136Z,20.20
2022-10-05T10:04:25.644Z,20.40
2022-10-05T10:07:45.756Z,20.60
2022-10-05T10:10:53.721Z,20.80
2022-10-05T10:14:12.953Z,20.90
2022-10-05T10:17:30.147Z,21.00
2022-10-05T10:20:31.953Z,21.00
2022-10-05T10:23:35.754Z,20.90
2022-10-05T10:26:52.612Z,21.00
2022-10-05T10:30:19.067Z,20.90
2022-10-05T10:33:41.703Z,21.00
2022-10-05T10:36:47.399Z,21.10
2022-10-05T10:39:54.324Z,21.20
2022-10-05T10:42:48.833Z,21.40
2022-10-05T10:45:49.103Z,21.40
2022-10-05T10:48:52.001Z,21.40
2022-10-05T10:51:56.683Z,21.40
2022-10-05T10:55:16.774Z,21.30
2022-10-05T10:58:47.306Z,21.00
2022-10-05T11:01:38.492Z,20.70
2022-10-05T11:04:56.147Z,20.50
2022-10-05T11:08:04.575Z,20.30
2022-10-05T11:11:09.268Z,20.20
2022-10-05T11:14:21.678Z,20.10
2022-10-05T11:17:23.107Z,20.20
2022-10-05T11:20:29.342Z,20.10
2022-10-05T11:23:47.134Z,20.00
2022-10-05T11:26:54.386Z,19.90
2022-10-05T11:30:06.829Z,19.80
2022-10-05T11:33:18.570Z,19.80
2022-10-05T11:36:26.809Z,19.70
2022-10-05T11:39:30.421Z,19.70
2022-10-05T11:42:46.830Z,19.50
2022-10-05T11:45:46.723Z,19.30
2022-10-05T11:49:05.224Z,19.30
2022-10-05T11:52:06.375Z,19.20
2022-10-05T11:55:12.172Z,19.00
2022-10-05T11:58:07.451Z,19.10
2022-10-05T12:00:59.603Z,19.00
2022-10-05T12:03:54.772Z,18.90
2022-10-05T12:07:02.797Z,19.00
2022-10-05T12:10:17.871Z,19.00
2022-10-05T12:13:23.986Z,18.80
2022-10-05T12:16:16.465Z,18.80
2022-10-05T12:19:10.256Z,18.80
2022-10-05T12:22:03.779Z,18.80
2022-10-05T12:25:12.710Z,18.70
2022-10-05T12:28:04.911Z,18.70
2022-10-05T12:31:18.789Z,18.70
2022-10-05T12:34:16.587Z,18.70
2022-10-05T12:37:12.402Z,18.70
2022-10-05T12:40:06.085Z,18.60
2022-10-05T12:43:03.026Z,18.50
2022-10-05T12:46:02.394Z,18.50
2022-10-05T12:49:08.401Z,18.50
2022-10-05T12:51:59.099Z,18.50
2022-10-05T12:54:58.686Z,18.60
2022-10-05T12:57:53.714Z,18.50
2022-10-05T13:00:48.201Z,18.70
2022-10-05T13:03:39.669Z,18.70
2022-10-05T13:06:36.703Z,18.70
2022-10-05T13:09:32.481Z,18.70
2022-10-05T13:12:35.329Z,18.70
2022-10-05T13:15:28.872Z,18.80
2022-10-05T13:18:22.805Z,18.80
2022-10-05T13:21:16.094Z,18.80
2022-10-05T13:24:12.791Z,18.80
2022-10-05T13:27:08.386Z,18.80
2022-10-05T13:30:02.855Z,18.80
2022-10-05T13:32:57.298Z,18.70
2022-10-05T13:35:50.261Z,18.80
2022-10-05T13:38:49.102Z,18.80
2022-10-05T13:41:47.006Z,18.70
2022-10-05T13:44:42.003Z,18.80
2022-10-05T13:47:35.158Z,18.80
2022-10-05T13:50:25.250Z,18.80
2022-10-05T13:53:21.836Z,18.80
2022-10-05T13:56:15.793Z,18.90
2022-10-05T13:59:15.855Z,18.90
2022-10-05T14:02:05.744Z,19.10
2022-10-05T14:04:58.958Z,19.10
2022-10-05T14:07:54.916Z,19.20
2022-10-05T14:10:43.922Z,19.00
2022-10-05T14:13:44.269Z,19.20
2022-10-05T14:16:35.432Z,19.20
2022-10-05T14:19:27.877Z,19.30
2022-10-05T14:22:17.394Z,19.40
2022-10-05T14:25:17.017Z,19.30
2022-10-05T14:28:23.935Z,19.30
2022-10-05T14:31:15.928Z,19.30
2022-10-05T14:34:31.018Z,19.20
2022-10-05T14:37:22.826Z,19.20
2022-10-05T14:40:28.585Z,19.20
2022-10-05T14:43:19.781Z,19.20
2022-10-05T14:46:27.232Z,19.20
2022-10-05T14:49:21.991Z,19.20
2022-10-05T14:55:06.621Z,19.20
2022-10-05T14:58:03.872Z,19.40
2022-10-05T15:00:57.642Z,19.30
2022-10-05T15:03:51.919Z,19.30
2022-10-05T15:06:40.598Z,19.30
2022-10-05T15:09:48.814Z,19.40
2022-10-05T15:12:43.775Z,19.50
2022-10-05T15:15:35.319Z,19.50
2022-10-05T15:18:37.335Z,19.50
2022-10-05T15:21:42.120Z,19.40
2022-10-05T15:24:41.340Z,19.30
2022-10-05T15:27:40.912Z,19.10
2022-10-05T15:30:28.981Z,19.30
2022-10-05T15:33:22.082Z,19.30
2022-10-05T15:36:15.036Z,19.30
2022-10-05T15:39:08.206Z,19.30
2022-10-05T15:42:01.466Z,19.20
2022-10-05T15:44:57.195Z,19.20
2022-10-05T15:47:56.720Z,19.20
2022-10-05T15:50:50.436Z,19.10
2022-10-05T15:53:44.737Z,19.10
2022-10-05T15:56:38.326Z,19.00
2022-10-05T15:59:31.590Z,18.90
2022-10-05T16:02:24.752Z,18.80
2022-10-05T16:05:41.706Z,18.80
2022-10-05T16:08:57.120Z,18.90
2022-10-05T16:11:53.439Z,18.80
2022-10-05T16:14:55.834Z,18.60
2022-10-05T16:17:56.612Z,18.50
2022-10-05T16:20:50.947Z,18.50
2022-10-05T16:23:47.306Z,18.40
2022-10-05T16:26:47.526Z,18.50
2022-10-05T16:29:40.877Z,18.50
2022-10-05T16:32:34.546Z,18.50
2022-10-05T16:35:29.229Z,18.50
2022-10-05T16:38:27.261Z,18.40
2022-10-05T16:41:20.993Z,18.30
2022-10-05T16:44:16.853Z,18.20
2022-10-05T16:47:10.129Z,18.10
2022-10-05T16:50:05.596Z,18.00
2022-10-05T16:52:58.090Z,17.90
2022-10-05T16:55:49.033Z,17.70
2022-10-05T16:58:46.771Z,17.70
2022-10-05T17:01:47.099Z,17.60
2022-10-05T17:04:44.841Z,17.60
2022-10-05T17:07:53.481Z,17.60
2022-10-05T17:10:49.477Z,17.50
2022-10-05T17:13:52.533Z,17.50
2022-10-05T17:16:48.667Z,17.40
2022-10-05T17:19:47.680Z,17.40
2022-10-05T17:22:39.492Z,17.40
2022-10-05T17:25:35.119Z,17.40
2022-10-05T17:28:37.800Z,17.30
2022-10-05T17:31:25.559Z,17.20
2022-10-05T17:34:29.304Z,17.20
2022-10-05T17:37:36.386Z,17.10
2022-10-05T17:40:41.498Z,17.10
2022-10-05T17:43:30.680Z,17.20
2022-10-05T17:46:40.091Z,17.10
2022-10-05T17:49:46.246Z,17.20
2022-10-05T17:52:50.601Z,17.30
2022-10-05T17:56:05.243Z,17.30
2022-10-05T17:59:01.766Z,17.40
2022-10-05T18:02:39.264Z,17.30
2022-10-05T18:05:27.652Z,17.20
2022-10-05T18:08:32.580Z,17.30
2022-10-05T18:11:36.626Z,17.20
2022-10-05T18:14:24.771Z,17.20
2022-10-05T18:17:13.194Z,17.20
2022-10-05T18:20:18.919Z,17.10
2022-10-05T18:23:30.134Z,17.20
2022-10-05T18:26:29.697Z,17.10
2022-10-05T18:29:43.434Z,17.10
2022-10-05T18:32:53.241Z,17.10
2022-10-05T18:35:51.799Z,17.00
2022-10-05T18:38:47.291Z,17.00
2022-10-05T18:41:44.466Z,16.90
2022-10-05T18:44:39.380Z,16.90
2022-10-05T18:47:33.137Z,16.70
2022-10-05T18:50:27.013Z,16.70
2022-10-05T18:53:24.194Z,16.70
2022-10-05T18:56:21.006Z,16.70
2022-10-05T18:59:24.385Z,16.60
2022-10-05T19:02:19.661Z,16.70
2022-10-05T19:05:43.021Z,16.70
2022-10-05T19:08:32.791Z,16.70
2022-10-05T19:11:24.161Z,16.70
2022-10-05T19:14:17.575Z,16.80
2022-10-05T19:17:21.466Z,16.50
2022-10-05T19:20:18.309Z,16.50
2022-10-05T19:23:20.267Z,16.50
2022-10-05T19:26:15.310Z,16.50
2022-10-05T19:29:09.021Z,16.50
2022-10-05T19:32:01.328Z,16.50
2022-10-05T19:35:03.921Z,16.60
2022-10-05T19:38:00.723Z,16.70
2022-10-05T19:40:56.746Z,16.50
2022-10-05T19:43:57.724Z,16.50
2022-10-05T19:46:55.283Z,16.40
2022-10-05T19:49:49.116Z,16.40
2022-10-05T19:52:46.365Z,16.30
2022-10-05T19:55:39.496Z,16.20
2022-10-05T19:58:28.043Z,16.30
2022-10-05T20:01:24.714Z,16.30
2022-10-05T20:04:11.242Z,16.30
2022-10-05T20:06:57.691Z,16.30
2022-10-05T20:09:54.258Z,16.20
2022-10-05T20:12:51.494Z,16.30
2022-10-05T20:15:55.415Z,16.40
2022-10-05T20:19:06.998Z,16.40
2022-10-05T20:21:56.566Z,16.40
2022-10-05T20:24:51.634Z,16.40
2022-10-05T20:27:49.324Z,16.30
2022-10-05T20:30:35.762Z,16.40
2022-10-05T20:33:22.141Z,16.40
2022-10-05T20:36:09.708Z,16.40
2022-10-05T20:38:56.073Z,16.40
2022-10-05T20:41:42.526Z,16.40
2022-10-05T20:44:28.912Z,16.40
2022-10-05T20:47:15.323Z,16.40
2022-10-05T20:50:04.900Z,16.50
2022-10-05T20:52:52.898Z,16.50
2022-10-05T20:55:39.397Z,16.50
2022-10-05T20:58:25.979Z,16.50
2022-10-05T21:01:19.570Z,16.40
2022-10-05T21:04:06.906Z,16.50
2022-10-05T21:06:53.934Z,16.50
2022-10-05T21:09:43.481Z,16.60
2022-10-05T21:12:30.113Z,16.60
2022-10-05T21:15:16.334Z,16.50
2022-10-05T21:18:02.901Z,16.50
2022-10-05T21:20:50.531Z,16.60
2022-10-05T21:23:37.187Z,16.60
2022-10-05T21:26:24.861Z,16.60
2022-10-05T21:29:13.033Z,16.60
2022-10-05T21:31:59.386Z,16.70
2022-10-05T21:34:46.000Z,16.60
2022-10-05T21:37:32.313Z,16.60
2022-10-05T21:40:18.818Z,16.50
2022-10-05T21:43:06.650Z,16.60
2022-10-05T21:45:54.875Z,16.50
2022-10-05T21:48:41.633Z,16.40
2022-10-05T21:51:28.326Z,16.40
2022-10-05T21:54:17.706Z,16.30
2022-10-05T21:57:04.213Z,16.20
2022-10-05T21:59:52.166Z,16.20
2022-10-05T22:02:38.714Z,16.10
2022-10-05T22:05:25.116Z,16.20
2022-10-05T22:08:21.201Z,16.00
2022-10-05T22:11:12.609Z,16.00
2022-10-05T22:14:02.486Z,16.00
2022-10-05T22:16:50.070Z,16.10
2022-10-05T22:19:36.629Z,16.10
2022-10-05T22:22:23.442Z,16.00
2022-10-05T22:25:09.929Z,15.90
2022-10-05T22:27:56.536Z,15.90
2022-10-05T22:30:46.023Z,15.90
2022-10-05T22:33:33.794Z,15.80
2022-10-05T22:36:20.651Z,15.90
2022-10-05T22:39:06.885Z,15.90
2022-10-05T22:41:53.456Z,15.90
2022-10-05T22:44:40.222Z,15.90
2022-10-05T22:47:26.414Z,15.70
2022-10-05T22:50:13.934Z,15.80
2022-10-05T22:53:00.309Z,15.80
2022-10-05T22:55:46.497Z,15.80
2022-10-05T22:58:32.945Z,15.70
2022-10-05T23:01:20.615Z,15.70
2022-10-05T23:04:08.732Z,15.60
2022-10-05T23:06:56.428Z,15.60
2022-10-05T23:09:42.809Z,15.60
2022-10-05T23:12:29.014Z,15.60
2022-10-05T23:15:15.458Z,15.50
2022-10-05T23:18:01.694Z,15.50
2022-10-05T23:20:54.009Z,15.50
2022-10-05T23:23:43.265Z,15.60
2022-10-05T23:26:29.548Z,15.60
2022-10-05T23:29:16.030Z,15.50
2022-10-05T23:32:02.506Z,15.50
2022-10-05T23:34:48.757Z,15.50
2022-10-05T23:37:38.379Z,15.50
2022-10-05T23:40:26.318Z,15.50
2022-10-05T23:43:12.926Z,15.40
2022-10-05T23:45:59.901Z,15.40
2022-10-05T23:48:46.490Z,15.40
2022-10-05T23:51:33.342Z,15.40
2022-10-05T23:54:19.998Z,15.40
2022-10-05T23:57:07.635Z,15.40
2022-10-05T23:59:56.147Z,15.30
